Time;durP1;ratioP1;P1;durP2;ratioP2;P2;SDS_P1;SDS_P2;PMS_P1;PMS_P2;Temp;Humidity;BMP_temperature;BMP_pressure;BME280_temperature;BME280_humidity;BME280_pressure;Samples;Min_cycle;Max_cycle;Signal;HPM_P1;HPM_P2
2022/05/28 00:01:33;;;;;;;3.67;1.80;;;20.50;99.90;;;;;;5072630;28;20186;-70
2022/05/28 00:04:04;;;;;;;2.00;1.40;;;21.00;99.90;;;;;;5073740;28;20221;-68
2022/05/28 00:06:34;;;;;;;2.60;1.60;;;20.90;99.90;;;;;;5072756;28;20215;-70
2022/05/28 00:09:03;;;;;;;3.33;1.47;;;20.90;99.90;;;;;;5073690;28;20203;-70
2022/05/28 00:11:34;;;;;;;1.67;1.20;;;20.90;99.90;;;;;;5072311;28;20187;-69
2022/05/28 00:14:02;;;;;;;4.37;1.40;;;21.00;99.90;;;;;;5073843;28;20233;-70
2022/05/28 00:16:30;;;;;;;2.83;1.50;;;21.30;99.90;;;;;;5073394;28;20228;-71
2022/05/28 00:18:58;;;;;;;3.70;1.57;;;21.00;99.90;;;;;;5073665;28;20528;-69
2022/05/28 00:21:27;;;;;;;2.53;1.70;;;20.90;99.90;;;;;;5073876;28;20184;-69
2022/05/28 00:23:55;;;;;;;1.63;1.27;;;20.30;99.90;;;;;;5073311;28;20220;-70
2022/05/28 00:26:23;;;;;;;4.20;1.63;;;20.80;99.90;;;;;;5073429;28;20206;-70
2022/05/28 00:28:52;;;;;;;1.43;1.30;;;20.80;99.90;;;;;;5073342;28;20182;-69
2022/05/28 00:31:20;;;;;;;2.27;1.40;;;21.20;99.90;;;;;;5073492;28;20228;-70
2022/05/28 00:33:48;;;;;;;2.07;1.37;;;21.30;99.90;;;;;;5073391;28;20175;-69
2022/05/28 00:36:16;;;;;;;3.43;1.83;;;21.70;99.90;;;;;;5073214;28;20168;-70
2022/05/28 00:38:45;;;;;;;4.03;1.60;;;21.80;99.90;;;;;;5073303;28;20282;-70
2022/05/28 00:41:13;;;;;;;4.23;1.53;;;21.90;99.90;;;;;;5073274;28;20221;-68
2022/05/28 00:43:44;;;;;;;4.70;1.80;;;21.80;99.90;;;;;;5073058;28;20203;-69
2022/05/28 00:46:16;;;;;;;2.67;1.50;;;22.20;99.90;;;;;;5073242;28;20191;-72
2022/05/28 00:48:48;;;;;;;1.87;1.60;;;22.90;99.90;;;;;;5073131;28;20224;-68
2022/05/28 00:51:24;;;;;;;2.67;1.80;;;22.50;99.90;;;;;;5073328;28;20621;-69
2022/05/28 00:53:54;;;;;;;2.70;1.70;;;22.80;99.90;;;;;;5073001;28;20175;-71
2022/05/28 00:56:24;;;;;;;2.87;1.50;;;22.40;99.90;;;;;;5072938;28;20176;-69
2022/05/28 00:58:52;;;;;;;2.13;1.50;;;22.20;99.90;;;;;;5073127;28;20196;-72
2022/05/28 01:01:27;;;;;;;2.17;1.33;;;23.20;99.90;;;;;;5072878;28;20225;-72
2022/05/28 01:04:16;;;;;;;1.63;1.47;;;23.00;99.90;;;;;;5071553;28;20306;-71
2022/05/28 01:07:08;;;;;;;2.93;1.70;;;22.50;99.90;;;;;;5072802;28;20168;-69
2022/05/28 01:10:10;;;;;;;2.43;1.50;;;21.70;99.90;;;;;;5072794;28;20172;-69
2022/05/28 01:13:22;;;;;;;2.20;1.30;;;21.10;99.90;;;;;;5065829;28;20272;-70
2022/05/28 01:16:12;;;;;;;2.70;1.53;;;20.80;99.90;;;;;;5050012;28;20180;-70
2022/05/28 01:18:47;;;;;;;3.57;1.50;;;20.90;99.90;;;;;;5071359;28;20557;-71
2022/05/28 01:21:39;;;;;;;1.60;1.40;;;20.90;99.90;;;;;;5072508;28;20180;-70
2022/05/28 01:24:29;;;;;;;4.03;1.70;;;21.10;99.90;;;;;;5071110;28;20218;-70
2022/05/28 01:27:04;;;;;;;2.43;2.00;;;21.50;99.90;;;;;;5072733;28;20170;-69
2022/05/28 01:29:39;;;;;;;4.37;1.60;;;21.70;99.90;;;;;;5072545;28;20179;-72
2022/05/28 01:32:07;;;;;;;4.13;2.00;;;21.60;99.90;;;;;;5072733;28;20485;-69
2022/05/28 01:34:36;;;;;;;2.27;1.43;;;22.20;99.90;;;;;;5072818;28;20176;-70
2022/05/28 01:37:04;;;;;;;3.93;1.27;;;22.70;99.90;;;;;;5071004;28;20233;-72
2022/05/28 01:39:33;;;;;;;1.67;1.10;;;23.10;99.90;;;;;;5072494;28;20630;-70
2022/05/28 01:42:02;;;;;;;2.03;1.30;;;23.60;99.90;;;;;;5072415;28;20641;-72
2022/05/28 01:44:32;;;;;;;3.73;1.30;;;24.50;99.90;;;;;;5072544;28;20645;-71
2022/05/28 01:46:59;;;;;;;1.83;1.03;;;24.70;99.90;;;;;;5072388;28;20179;-71
2022/05/28 01:49:28;;;;;;;3.40;1.20;;;24.20;99.90;;;;;;5070829;28;20176;-70
2022/05/28 01:51:59;;;;;;;1.90;1.40;;;24.50;99.90;;;;;;5072266;28;20248;-71
2022/05/28 01:54:36;;;;;;;1.30;1.03;;;24.50;99.90;;;;;;5072433;28;20196;-71
2022/05/28 01:57:05;;;;;;;1.20;0.90;;;24.70;99.90;;;;;;5072148;28;20179;-70
2022/05/28 01:59:35;;;;;;;1.50;1.00;;;23.60;99.90;;;;;;5072299;28;20172;-70
2022/05/28 02:02:06;;;;;;;4.63;1.10;;;23.70;99.90;;;;;;5072122;28;20652;-68
2022/05/28 02:04:36;;;;;;;1.20;0.80;;;23.60;99.90;;;;;;5072403;28;20188;-70
2022/05/28 02:07:05;;;;;;;2.87;1.00;;;24.00;99.90;;;;;;5072139;28;20176;-69
2022/05/28 02:09:55;;;;;;;1.23;0.80;;;23.30;99.90;;;;;;5072184;28;20229;-70
2022/05/28 02:12:34;;;;;;;1.07;0.97;;;23.80;99.90;;;;;;5072181;28;20164;-69
2022/05/28 02:15:19;;;;;;;3.60;1.00;;;23.30;99.90;;;;;;5072087;28;20641;-69
2022/05/28 02:17:52;;;;;;;2.03;1.40;;;23.30;99.90;;;;;;5071955;28;20273;-70
2022/05/28 02:20:53;;;;;;;1.83;1.43;;;23.80;99.90;;;;;;5071923;28;20172;-69
2022/05/28 02:23:42;;;;;;;1.87;1.10;;;24.30;99.90;;;;;;5071995;28;20232;-68
2022/05/28 02:26:14;;;;;;;2.03;0.90;;;23.30;99.90;;;;;;5072265;28;20260;-69
2022/05/28 02:28:43;;;;;;;0.83;0.77;;;23.30;99.90;;;;;;5074522;28;20607;-69
2022/05/28 02:31:20;;;;;;;1.63;0.80;;;23.20;99.90;;;;;;5074283;28;20548;-70
2022/05/28 02:33:48;;;;;;;2.97;1.00;;;22.60;99.90;;;;;;5074527;28;20281;-69
2022/05/28 02:36:17;;;;;;;1.07;0.90;;;22.30;99.90;;;;;;5075418;28;20178;-69
2022/05/28 02:38:46;;;;;;;1.23;1.03;;;21.90;99.90;;;;;;5075677;28;20178;-69
2022/05/28 02:41:14;;;;;;;2.60;1.33;;;21.60;99.90;;;;;;5075483;28;20172;-70
2022/05/28 02:43:42;;;;;;;1.33;1.10;;;21.40;99.90;;;;;;5076060;28;20667;-70
2022/05/28 02:46:10;;;;;;;1.57;1.10;;;21.40;99.90;;;;;;5075526;28;20547;-69
2022/05/28 02:48:39;;;;;;;1.10;0.90;;;21.20;99.90;;;;;;5075199;28;20172;-72
2022/05/28 02:51:10;;;;;;;2.63;1.00;;;21.10;99.90;;;;;;5074213;28;20191;-69
2022/05/28 02:53:38;;;;;;;1.93;0.90;;;21.00;99.90;;;;;;5075532;28;20247;-69
2022/05/28 02:56:08;;;;;;;1.83;0.90;;;21.10;99.90;;;;;;5075203;28;20649;-69
2022/05/28 02:58:36;;;;;;;4.40;1.10;;;21.10;99.90;;;;;;5075133;28;20689;-68
2022/05/28 03:01:15;;;;;;;1.10;0.70;;;21.00;99.90;;;;;;5075597;28;20190;-70
2022/05/28 03:03:43;;;;;;;0.80;0.80;;;21.10;99.90;;;;;;5073812;28;20239;-69
2022/05/28 03:06:10;;;;;;;1.50;0.80;;;21.40;99.90;;;;;;5075042;28;20180;-69
2022/05/28 03:08:38;;;;;;;1.10;0.60;;;21.50;99.90;;;;;;5074886;28;20709;-69
2022/05/28 03:11:06;;;;;;;2.63;0.67;;;21.30;99.90;;;;;;5073898;28;20640;-69
2022/05/28 03:13:33;;;;;;;2.00;0.70;;;21.20;99.90;;;;;;5073840;28;20546;-70
2022/05/28 03:16:01;;;;;;;0.73;0.50;;;20.90;99.90;;;;;;5074583;28;20172;-69
2022/05/28 03:18:29;;;;;;;0.67;0.63;;;20.80;99.90;;;;;;5074743;28;20192;-69
2022/05/28 03:20:57;;;;;;;1.00;0.60;;;20.70;99.90;;;;;;5074813;28;20622;-70
2022/05/28 03:23:24;;;;;;;0.50;0.50;;;20.70;99.90;;;;;;5074815;28;20219;-68
2022/05/28 03:25:52;;;;;;;0.97;0.60;;;20.70;99.90;;;;;;5074864;28;20229;-71
2022/05/28 03:28:20;;;;;;;1.10;0.60;;;20.90;99.90;;;;;;5074765;28;20177;-70
2022/05/28 03:30:47;;;;;;;0.50;0.50;;;21.00;99.90;;;;;;5074629;28;20180;-69
2022/05/28 03:33:15;;;;;;;1.10;0.67;;;21.00;99.90;;;;;;5073082;28;20636;-70
2022/05/28 03:35:43;;;;;;;1.27;0.50;;;20.90;99.90;;;;;;5074406;28;20191;-69
2022/05/28 03:38:10;;;;;;;1.03;0.60;;;20.70;99.90;;;;;;5073953;28;20176;-68
2022/05/28 03:40:38;;;;;;;2.63;0.50;;;20.70;99.90;;;;;;5074698;28;20168;-69
2022/05/28 03:43:06;;;;;;;2.40;0.67;;;20.70;99.90;;;;;;5074480;28;20208;-72
2022/05/28 03:45:34;;;;;;;1.00;0.70;;;20.70;99.90;;;;;;5074359;28;20290;-70
2022/05/28 03:48:06;;;;;;;0.83;0.53;;;20.60;99.90;;;;;;5074308;28;20202;-69
2022/05/28 03:50:34;;;;;;;1.33;0.80;;;20.60;99.90;;;;;;5074368;28;20269;-70
2022/05/28 03:53:02;;;;;;;1.77;0.33;;;20.60;99.90;;;;;;5074255;28;20178;-70
2022/05/28 03:55:30;;;;;;;0.83;0.70;;;20.50;99.90;;;;;;5073923;28;20175;-69
2022/05/28 03:57:57;;;;;;;1.43;0.60;;;20.70;99.90;;;;;;5074047;28;20187;-70
2022/05/28 04:00:25;;;;;;;0.83;0.60;;;21.00;99.90;;;;;;5073889;28;20203;-71
2022/05/28 04:02:53;;;;;;;0.70;0.60;;;21.00;99.90;;;;;;5073697;28;20257;-69
2022/05/28 04:05:22;;;;;;;0.40;0.40;;;21.00;99.90;;;;;;5074068;28;20276;-69
2022/05/28 04:07:50;;;;;;;0.50;0.50;;;21.00;99.90;;;;;;5073984;28;20233;-69
2022/05/28 04:10:18;;;;;;;0.50;0.43;;;20.90;99.90;;;;;;5072566;28;20203;-70
2022/05/28 04:12:46;;;;;;;0.40;0.40;;;21.40;99.90;;;;;;5074276;28;20254;-69
2022/05/28 04:15:14;;;;;;;0.80;0.50;;;21.70;99.90;;;;;;5073636;28;20681;-72
2022/05/28 04:17:42;;;;;;;2.10;0.60;;;21.70;99.90;;;;;;5073562;28;20266;-71
2022/05/28 04:20:13;;;;;;;1.40;0.63;;;22.40;99.90;;;;;;5073355;28;20167;-69
2022/05/28 04:22:40;;;;;;;0.73;0.40;;;23.00;99.90;;;;;;5073686;28;20556;-72
2022/05/28 04:25:09;;;;;;;4.83;3.10;;;23.70;99.90;;;;;;5073501;28;20265;-72
2022/05/28 04:27:39;;;;;;;0.30;0.30;;;24.20;99.90;;;;;;5073602;28;20168;-69
2022/05/28 04:30:08;;;;;;;0.63;0.50;;;24.00;99.90;;;;;;5073240;28;20594;-70
2022/05/28 04:32:36;;;;;;;3.63;0.50;;;24.30;99.90;;;;;;5073456;28;20172;-73
2022/05/28 04:35:04;;;;;;;0.63;0.30;;;24.60;99.90;;;;;;5073553;28;20660;-69
2022/05/28 04:37:31;;;;;;;1.03;0.60;;;25.30;99.90;;;;;;5073688;28;20168;-69
2022/05/28 04:39:59;;;;;;;1.33;0.50;;;25.00;99.90;;;;;;5073106;28;20249;-72
2022/05/28 04:42:27;;;;;;;0.57;0.30;;;24.60;99.90;;;;;;5073082;28;20183;-69
2022/05/28 04:44:56;;;;;;;0.40;0.40;;;24.60;99.90;;;;;;5071676;28;20270;-69
2022/05/28 04:47:24;;;;;;;0.60;0.40;;;24.40;99.90;;;;;;5073100;28;20187;-72
2022/05/28 04:49:52;;;;;;;0.47;0.43;;;23.90;99.90;;;;;;5073055;28;20172;-70
2022/05/28 04:52:21;;;;;;;0.50;0.40;;;23.80;99.90;;;;;;5072837;28;20245;-69
2022/05/28 04:54:49;;;;;;;1.23;0.40;;;23.60;99.90;;;;;;5073335;28;20526;-72
2022/05/28 04:57:17;;;;;;;0.30;0.30;;;23.60;99.90;;;;;;5073145;28;20179;-71
2022/05/28 04:59:45;;;;;;;2.30;0.47;;;23.30;99.90;;;;;;5073060;28;20269;-70
2022/05/28 05:02:12;;;;;;;0.40;0.40;;;23.30;99.90;;;;;;5073027;28;20629;-70
2022/05/28 05:04:40;;;;;;;0.50;0.50;;;23.90;99.90;;;;;;5072867;28;20186;-71
2022/05/28 05:07:08;;;;;;;3.70;0.50;;;24.10;99.90;;;;;;5072916;28;20172;-69
2022/05/28 05:09:36;;;;;;;0.60;0.40;;;24.10;99.90;;;;;;5073136;28;20178;-67
2022/05/28 05:12:04;;;;;;;1.23;0.50;;;24.00;99.90;;;;;;5072619;28;20176;-73
2022/05/28 05:14:31;;;;;;;2.20;0.67;;;23.60;99.90;;;;;;5072986;28;20637;-68
2022/05/28 05:16:59;;;;;;;1.00;0.60;;;23.10;99.90;;;;;;5072347;28;20244;-69
2022/05/28 05:19:27;;;;;;;1.67;0.60;;;22.20;99.90;;;;;;5072666;28;20182;-72
2022/05/28 05:21:55;;;;;;;1.13;0.50;;;21.70;99.90;;;;;;5071377;28;20194;-72
2022/05/28 05:24:24;;;;;;;0.60;0.60;;;21.40;99.90;;;;;;5072718;28;20214;-70
2022/05/28 05:26:52;;;;;;;0.93;0.40;;;21.30;99.90;;;;;;5072714;28;20176;-72
2022/05/28 05:29:20;;;;;;;0.77;0.47;;;21.10;99.90;;;;;;5072674;28;20264;-71
2022/05/28 05:31:47;;;;;;;0.70;0.60;;;20.90;99.90;;;;;;5072577;28;20234;-69
2022/05/28 05:34:15;;;;;;;0.93;0.63;;;20.70;99.90;;;;;;5072607;28;20212;-71
2022/05/28 05:36:43;;;;;;;0.63;0.50;;;20.80;99.90;;;;;;5072454;28;20184;-73
2022/05/28 05:39:10;;;;;;;1.03;0.63;;;20.80;99.90;;;;;;5072423;28;20280;-69
2022/05/28 05:41:44;;;;;;;0.90;0.90;;;20.90;99.90;;;;;;5072355;28;20230;-70
2022/05/28 05:44:13;;;;;;;1.10;0.80;;;21.00;99.90;;;;;;5072660;28;20224;-72
2022/05/28 05:46:43;;;;;;;1.53;1.10;;;20.90;99.90;;;;;;5071130;28;20263;-69
2022/05/28 05:49:11;;;;;;;2.10;1.60;;;20.70;99.90;;;;;;5072419;28;20655;-69
2022/05/28 05:51:44;;;;;;;2.83;2.30;;;20.60;99.90;;;;;;5072510;28;20244;-69
2022/05/28 05:54:14;;;;;;;5.20;2.50;;;20.60;99.90;;;;;;5072657;28;20183;-70
2022/05/28 05:56:42;;;;;;;3.93;2.43;;;20.60;99.90;;;;;;5072681;28;20295;-68
2022/05/28 05:59:10;;;;;;;1.30;1.20;;;20.50;99.90;;;;;;5072509;28;20204;-68
2022/05/28 06:01:39;;;;;;;1.63;1.10;;;20.50;99.90;;;;;;5073162;28;20209;-70
2022/05/28 06:04:06;;;;;;;3.00;1.20;;;20.50;99.90;;;;;;5076309;28;20213;-69
2022/05/28 06:06:35;;;;;;;1.27;0.60;;;20.40;99.90;;;;;;5075318;28;20296;-69
2022/05/28 06:09:02;;;;;;;0.80;0.60;;;20.20;99.90;;;;;;5075998;28;20623;-70
2022/05/28 06:11:30;;;;;;;1.17;0.50;;;20.00;99.90;;;;;;5076184;28;20176;-68
2022/05/28 06:13:58;;;;;;;0.80;0.60;;;20.00;99.90;;;;;;5076132;28;20238;-68
2022/05/28 06:16:26;;;;;;;0.90;0.60;;;19.90;99.90;;;;;;5075652;28;20224;-69
2022/05/28 06:18:54;;;;;;;1.27;1.00;;;19.90;99.90;;;;;;5075982;28;20194;-69
2022/05/28 06:21:22;;;;;;;1.57;1.30;;;19.70;99.90;;;;;;5075861;28;20276;-69
2022/05/28 06:23:49;;;;;;;4.17;1.40;;;19.70;99.90;;;;;;5075785;28;20331;-70
2022/05/28 06:26:17;;;;;;;1.50;1.10;;;19.60;99.90;;;;;;5075869;28;20200;-69
2022/05/28 06:28:45;;;;;;;3.43;1.10;;;19.50;99.90;;;;;;5074562;28;20188;-70
2022/05/28 06:31:14;;;;;;;2.20;0.70;;;19.40;99.90;;;;;;5075801;28;20528;-69
2022/05/28 06:33:42;;;;;;;0.87;0.83;;;19.30;99.90;;;;;;5075845;28;20168;-69
2022/05/28 06:36:12;;;;;;;4.13;1.03;;;19.20;99.90;;;;;;5075802;28;20203;-71
2022/05/28 06:38:40;;;;;;;1.80;0.90;;;19.10;99.90;;;;;;5074296;28;20187;-69
2022/05/28 06:41:08;;;;;;;1.27;0.90;;;18.90;99.90;;;;;;5075649;28;20169;-69
2022/05/28 06:43:37;;;;;;;1.87;0.93;;;18.80;99.90;;;;;;5075659;28;20222;-69
2022/05/28 06:46:07;;;;;;;1.97;1.20;;;18.60;99.90;;;;;;5075747;28;20176;-70
2022/05/28 06:48:38;;;;;;;1.30;1.10;;;18.50;99.90;;;;;;5075316;28;20598;-69
2022/05/28 06:51:07;;;;;;;5.07;1.27;;;18.30;99.90;;;;;;5075603;28;20217;-70
2022/05/28 06:53:38;;;;;;;2.90;1.40;;;18.20;99.90;;;;;;5074466;28;20254;-70
2022/05/28 06:56:07;;;;;;;4.23;1.40;;;18.00;99.90;;;;;;5075226;28;20262;-69
2022/05/28 06:58:35;;;;;;;1.53;1.30;;;17.90;99.90;;;;;;5075322;28;20183;-70
2022/05/28 07:01:06;;;;;;;2.50;1.53;;;17.60;99.90;;;;;;5075264;28;20165;-70
2022/05/28 07:03:34;;;;;;;5.37;1.50;;;17.40;99.90;;;;;;5075162;28;20220;-70
2022/05/28 07:06:02;;;;;;;2.23;1.40;;;17.20;99.90;;;;;;5075154;28;20172;-71
2022/05/28 07:08:30;;;;;;;1.43;1.33;;;17.10;99.90;;;;;;5075036;28;20303;-70
2022/05/28 07:11:00;;;;;;;4.20;1.80;;;17.00;99.90;;;;;;5075191;28;20641;-70
2022/05/28 07:13:29;;;;;;;3.23;1.87;;;16.80;99.90;;;;;;5074140;28;20196;-70
2022/05/28 07:15:57;;;;;;;1.50;1.40;;;16.70;99.90;;;;;;5074755;28;20225;-70
2022/05/28 07:18:25;;;;;;;2.93;1.70;;;16.60;99.90;;;;;;5074780;28;20626;-70
2022/05/28 07:20:53;;;;;;;3.63;1.83;;;16.60;99.90;;;;;;5074749;28;20180;-68
2022/05/28 07:23:24;;;;;;;3.33;1.97;;;16.50;99.90;;;;;;5074658;28;20661;-69
2022/05/28 07:26:18;;;;;;;4.70;2.07;;;16.60;99.90;;;;;;5074827;28;20176;-70
2022/05/28 07:28:46;;;;;;;4.30;1.93;;;16.50;99.90;;;;;;5074588;28;20650;-70
2022/05/28 07:31:18;;;;;;;3.40;1.83;;;16.30;99.90;;;;;;5074855;28;20185;-69
2022/05/28 07:33:47;;;;;;;3.23;2.03;;;16.20;99.90;;;;;;5075093;28;20180;-70
2022/05/28 07:36:23;;;;;;;5.40;2.30;;;16.20;99.90;;;;;;5074735;28;20184;-70
2022/05/28 07:38:52;;;;;;;2.93;2.17;;;16.10;99.90;;;;;;5074574;28;20178;-71
2022/05/28 07:41:25;;;;;;;2.87;1.83;;;16.00;99.90;;;;;;5073291;28;20241;-70
2022/05/28 07:43:55;;;;;;;4.50;1.93;;;15.90;99.90;;;;;;5074278;28;20219;-70
2022/05/28 07:46:28;;;;;;;4.67;2.40;;;15.80;99.90;;;;;;5074713;28;20188;-70
2022/05/28 07:48:58;;;;;;;2.83;2.10;;;15.70;99.90;;;;;;5073062;28;20274;-70
2022/05/28 07:51:26;;;;;;;2.30;1.90;;;15.60;99.90;;;;;;5074293;28;20207;-72
2022/05/28 07:53:54;;;;;;;2.70;2.03;;;15.50;99.90;;;;;;5072879;28;20187;-69
2022/05/28 07:56:22;;;;;;;3.70;1.67;;;15.50;99.90;;;;;;5074089;28;20198;-69
2022/05/28 07:58:54;;;;;;;4.73;2.03;;;15.40;99.90;;;;;;5074175;28;20664;-72
2022/05/28 08:01:24;;;;;;;3.87;2.07;;;15.30;99.90;;;;;;5074292;28;20180;-70
2022/05/28 08:03:52;;;;;;;6.63;2.33;;;15.30;99.90;;;;;;5073930;28;20214;-71
2022/05/28 08:06:20;;;;;;;4.60;2.57;;;15.10;99.90;;;;;;5073881;28;20206;-72
2022/05/28 08:08:51;;;;;;;5.83;2.40;;;15.10;99.90;;;;;;5073779;28;20256;-70
2022/05/28 08:11:19;;;;;;;4.93;2.27;;;15.00;99.90;;;;;;5073933;28;20533;-71
2022/05/28 08:13:47;;;;;;;3.63;2.00;;;15.00;99.90;;;;;;5073989;28;20176;-72
2022/05/28 08:16:15;;;;;;;3.50;2.20;;;15.00;99.90;;;;;;5073112;28;20184;-69
2022/05/28 08:18:43;;;;;;;3.00;1.93;;;14.90;99.90;;;;;;5073747;28;20187;-70
2022/05/28 08:23:56;;;;;;;7.70;2.03;;;14.90;99.90;;;;;;5073622;28;20221;-69
2022/05/28 08:26:24;;;;;;;5.47;2.40;;;14.90;99.90;;;;;;5072392;28;20173;-72
2022/05/28 08:28:53;;;;;;;4.63;2.33;;;14.90;99.90;;;;;;5073631;28;20176;-72
2022/05/28 08:31:22;;;;;;;2.77;2.30;;;15.10;99.90;;;;;;5073464;28;20179;-70
2022/05/28 08:33:50;;;;;;;3.50;2.33;;;15.10;99.90;;;;;;5073536;28;20179;-72
2022/05/28 08:36:18;;;;;;;6.20;2.50;;;15.10;99.90;;;;;;5073021;28;20187;-71
2022/05/28 08:38:46;;;;;;;5.13;2.43;;;15.00;99.90;;;;;;5073313;28;20168;-71
2022/05/28 08:41:41;;;;;;;4.40;2.20;;;15.00;99.90;;;;;;5073605;28;20175;-71
2022/05/28 08:44:14;;;;;;;5.57;3.10;;;14.80;99.90;;;;;;5072085;28;20230;-70
2022/05/28 08:46:44;;;;;;;3.93;2.63;;;14.70;99.90;;;;;;5073396;28;20175;-71
2022/05/28 08:49:13;;;;;;;3.40;2.13;;;14.60;99.90;;;;;;5073322;28;20168;-73
2022/05/28 08:51:45;;;;;;;6.07;2.33;;;14.50;99.90;;;;;;5073332;28;20187;-71
2022/05/28 08:54:30;;;;;;;5.87;2.60;;;14.40;99.90;;;;;;5073287;28;20215;-71
2022/05/28 08:57:04;;;;;;;3.37;2.40;;;14.40;99.90;;;;;;5073222;28;20176;-72
2022/05/28 09:00:09;;;;;;;3.63;2.33;;;14.40;99.90;;;;;;5073350;28;20214;-71
2022/05/28 09:02:43;;;;;;;3.60;2.07;;;14.40;99.90;;;;;;5061080;28;20183;-70
2022/05/28 09:05:57;;;;;;;3.80;2.07;;;14.50;99.90;;;;;;5073723;28;20191;-72
2022/05/28 09:08:42;;;;;;;2.33;2.07;;;14.40;99.90;;;;;;5067302;28;20294;-72
2022/05/28 09:11:33;;;;;;;2.50;2.00;;;14.60;99.90;;;;;;5073058;28;20188;-70
2022/05/28 09:14:22;;;;;;;3.10;2.13;;;14.60;99.90;;;;;;5073067;28;20172;-72
2022/05/28 09:16:53;;;;;;;3.13;1.90;;;14.50;99.90;;;;;;5072681;28;20244;-73
2022/05/28 09:19:24;;;;;;;3.00;2.00;;;14.40;99.90;;;;;;5073001;28;20267;-72
2022/05/28 09:21:53;;;;;;;2.20;1.70;;;14.20;99.90;;;;;;5073140;28;20168;-72
2022/05/28 09:24:24;;;;;;;4.33;1.87;;;14.10;99.90;;;;;;5072815;28;20226;-70
2022/05/28 09:27:11;;;;;;;3.63;1.77;;;14.20;99.90;;;;;;5073298;28;20329;-72
2022/05/28 09:30:06;;;;;;;3.13;1.90;;;14.20;99.90;;;;;;5072889;28;20183;-71
2022/05/28 09:32:57;;;;;;;2.80;1.67;;;14.10;99.90;;;;;;5071575;28;20609;-70
2022/05/28 09:35:39;;;;;;;1.97;1.63;;;14.00;99.90;;;;;;5072771;28;20207;-69
2022/05/28 09:38:22;;;;;;;2.33;1.77;;;13.80;99.90;;;;;;5072225;28;20190;-71
2022/05/28 09:40:54;;;;;;;4.40;1.93;;;13.70;99.90;;;;;;5072934;28;20598;-70
2022/05/28 09:43:58;;;;;;;2.87;2.00;;;13.60;99.90;;;;;;5071513;28;20204;-70
2022/05/28 09:46:34;;;;;;;2.77;1.80;;;13.50;99.90;;;;;;5072706;28;20232;-68
2022/05/28 09:49:15;;;;;;;2.00;1.80;;;13.40;99.90;;;;;;5071311;28;20225;-69
2022/05/28 09:51:52;;;;;;;3.53;1.63;;;13.30;99.90;;;;;;5072674;28;20659;-70
2022/05/28 09:54:24;;;;;;;2.60;2.00;;;13.20;99.90;;;;;;5072547;28;20179;-71
2022/05/28 09:56:54;;;;;;;2.20;1.80;;;13.20;99.90;;;;;;5072464;28;20182;-69
2022/05/28 09:59:37;;;;;;;3.70;2.20;;;13.10;99.90;;;;;;5072651;28;20672;-69
2022/05/28 10:02:14;;;;;;;4.87;2.37;;;13.00;99.90;;;;;;5071398;28;20648;-70
2022/05/28 10:05:06;;;;;;;2.13;1.60;;;13.00;99.90;;;;;;5072649;28;20211;-69
2022/05/28 10:07:38;;;;;;;4.17;2.80;;;12.90;99.90;;;;;;5072453;28;20175;-69
2022/05/28 10:10:26;;;;;;;2.23;2.03;;;12.80;99.90;;;;;;5072642;28;20207;-69
2022/05/28 10:13:05;;;;;;;1.37;1.23;;;12.80;99.90;;;;;;5072391;28;20395;-70
2022/05/28 10:15:38;;;;;;;2.63;1.60;;;12.70;99.90;;;;;;5072552;28;20179;-69
2022/05/28 10:18:12;;;;;;;3.17;1.80;;;12.70;99.90;;;;;;5072366;28;20219;-69
2022/05/28 10:20:43;;;;;;;2.97;1.87;;;12.60;99.90;;;;;;5072439;28;20182;-70
2022/05/28 10:23:21;;;;;;;6.10;1.70;;;12.50;99.90;;;;;;5071158;28;20217;-70
2022/05/28 10:25:53;;;;;;;1.70;1.50;;;12.50;99.90;;;;;;5072241;28;20174;-71
2022/05/28 10:28:45;;;;;;;2.93;1.60;;;12.40;99.90;;;;;;5071062;28;20183;-69
2022/05/28 10:31:40;;;;;;;2.20;1.80;;;12.40;99.90;;;;;;5071731;28;20497;-69
2022/05/28 10:34:21;;;;;;;2.40;1.30;;;12.40;99.90;;;;;;5070012;28;20525;-70
2022/05/28 10:36:49;;;;;;;2.07;1.87;;;12.30;99.90;;;;;;5072190;28;20186;-69
2022/05/28 10:39:19;;;;;;;5.90;2.40;;;12.30;99.90;;;;;;5072076;28;20568;-70
2022/05/28 10:41:52;;;;;;;2.90;1.83;;;12.20;99.90;;;;;;5072214;28;20186;-69
2022/05/28 10:44:19;;;;;;;2.40;1.63;;;12.10;99.90;;;;;;5072357;28;20210;-69
2022/05/28 10:47:07;;;;;;;3.50;2.00;;;12.10;99.90;;;;;;5070725;28;20195;-69
2022/05/28 10:49:41;;;;;;;3.60;2.10;;;12.10;99.90;;;;;;5062751;28;20190;-69
2022/05/28 10:52:18;;;;;;;2.60;2.13;;;12.00;99.90;;;;;;5075577;28;20263;-70
2022/05/28 10:54:56;;;;;;;3.80;2.23;;;12.00;99.90;;;;;;5075600;28;20183;-69
2022/05/28 10:57:58;;;;;;;5.67;2.30;;;12.00;99.90;;;;;;5075731;28;20182;-70
2022/05/28 11:00:45;;;;;;;2.80;2.27;;;12.00;99.90;;;;;;5075623;28;20523;-69
2022/05/28 11:03:38;;;;;;;2.97;2.17;;;12.00;99.90;;;;;;5075357;28;20203;-69
2022/05/28 11:06:23;;;;;;;4.07;2.63;;;12.00;99.90;;;;;;5075497;28;20186;-70
2022/05/28 11:09:06;;;;;;;4.27;3.13;;;11.90;99.90;;;;;;5075553;28;20183;-70
2022/05/28 11:11:48;;;;;;;3.03;2.60;;;11.90;99.90;;;;;;5074056;28;20236;-70
2022/05/28 11:14:36;;;;;;;6.13;2.80;;;11.90;99.90;;;;;;5075621;28;20183;-69
2022/05/28 11:17:25;;;;;;;7.00;2.93;;;11.90;99.90;;;;;;5075079;28;20256;-70
2022/05/28 11:20:02;;;;;;;5.10;3.00;;;11.90;99.90;;;;;;5075137;28;20542;-69
2022/05/28 11:22:36;;;;;;;3.50;2.47;;;12.00;99.90;;;;;;5075469;28;20173;-69
2022/05/28 11:25:19;;;;;;;4.70;2.87;;;12.00;99.90;;;;;;5075260;28;20537;-70
2022/05/28 11:27:59;;;;;;;3.20;2.70;;;12.00;99.90;;;;;;5074770;28;20181;-69
2022/05/28 11:30:30;;;;;;;4.23;2.80;;;12.00;99.90;;;;;;5074930;28;20170;-71
2022/05/28 11:33:06;;;;;;;5.03;3.10;;;11.90;99.90;;;;;;5075109;28;20177;-69
2022/05/28 11:35:43;;;;;;;7.83;3.00;;;11.80;99.90;;;;;;5075126;28;20183;-70
2022/05/28 11:38:40;;;;;;;5.93;3.13;;;11.70;99.90;;;;;;5074575;28;20200;-70
2022/05/28 11:41:22;;;;;;;5.40;3.10;;;11.70;99.90;;;;;;5074617;28;20173;-70
2022/05/28 11:44:20;;;;;;;8.70;3.20;;;11.60;99.90;;;;;;5073444;28;20229;-71
2022/05/28 11:47:10;;;;;;;7.83;4.20;;;11.50;99.90;;;;;;5069268;28;20191;-70
2022/05/28 11:52:55;;;;;;;5.80;3.53;;;11.40;99.90;;;;;;5075025;28;20215;-71
2022/05/28 11:55:26;;;;;;;4.67;3.50;;;11.40;99.90;;;;;;5074213;28;20235;-69
2022/05/28 11:58:09;;;;;;;8.17;3.97;;;11.30;99.90;;;;;;5074558;28;20176;-69
2022/05/28 12:00:40;;;;;;;6.90;4.33;;;11.30;99.90;;;;;;5074154;28;20182;-70
2022/05/28 12:03:29;;;;;;;8.37;4.53;;;11.20;99.90;;;;;;5074111;28;20197;-69
2022/05/28 12:06:09;;;;;;;5.63;3.80;;;11.20;99.90;;;;;;5074241;28;20177;-70
2022/05/28 12:08:50;;;;;;;5.77;3.90;;;11.20;99.90;;;;;;5074207;28;20177;-69
2022/05/28 12:11:21;;;;;;;6.67;3.90;;;11.10;99.90;;;;;;5072803;28;20599;-71
2022/05/28 12:13:53;;;;;;;7.37;4.03;;;11.10;99.90;;;;;;5074134;28;20182;-69
2022/05/28 12:16:26;;;;;;;6.87;4.13;;;11.00;99.90;;;;;;5074099;28;20248;-71
2022/05/28 12:19:07;;;;;;;5.17;3.87;;;11.00;99.90;;;;;;5073970;28;20676;-70
2022/05/28 12:21:37;;;;;;;8.20;4.67;;;10.90;99.90;;;;;;5074002;28;20176;-70
2022/05/28 12:24:10;;;;;;;7.40;4.83;;;10.90;99.90;;;;;;5073935;28;20217;-69
2022/05/28 12:29:26;;;;;;;11.03;5.47;;;11.20;99.90;;;;;;5073820;28;20188;-69
2022/05/28 12:31:54;;;;;;;6.57;5.17;;;11.20;99.90;;;;;;5073708;28;20268;-68
2022/05/28 12:34:29;;;;;;;8.60;5.17;;;11.20;99.90;;;;;;5074752;28;20556;-71
2022/05/28 12:36:58;;;;;;;5.90;5.10;;;11.10;99.90;;;;;;5074853;28;20265;-68
2022/05/28 12:39:42;;;;;;;6.90;5.30;;;11.00;99.90;;;;;;5073548;28;20200;-70
2022/05/28 12:42:23;;;;;;;7.57;5.53;;;10.90;99.90;;;;;;5073664;28;20200;-69
2022/05/28 12:44:52;;;;;;;9.07;5.73;;;10.80;99.90;;;;;;5073365;28;20275;-72
2022/05/28 12:47:28;;;;;;;6.30;5.17;;;10.80;99.90;;;;;;5073431;28;20215;-69
2022/05/28 12:50:13;;;;;;;6.80;5.30;;;10.70;99.90;;;;;;5074027;28;20177;-69
2022/05/28 12:53:00;;;;;;;6.20;4.77;;;10.70;99.90;;;;;;5073603;28;20262;-70
2022/05/28 12:55:35;;;;;;;7.67;5.10;;;10.60;99.90;;;;;;5071901;28;20182;-70
2022/05/28 12:58:10;;;;;;;12.57;5.27;;;10.60;99.90;;;;;;5073441;28;20234;-71
2022/05/28 13:00:54;;;;;;;6.73;5.13;;;10.50;99.90;;;;;;5073282;28;20180;-70
2022/05/28 13:03:25;;;;;;;5.53;4.80;;;10.50;99.90;;;;;;5071786;28;20205;-70
2022/05/28 13:06:11;;;;;;;7.00;4.90;;;10.50;99.90;;;;;;5073486;28;20198;-69
2022/05/28 13:08:56;;;;;;;6.27;4.90;;;10.40;99.90;;;;;;5073196;28;20630;-68
2022/05/28 13:11:34;;;;;;;7.80;5.33;;;10.40;99.90;;;;;;5072587;28;20194;-69
2022/05/28 13:14:25;;;;;;;8.83;6.00;;;10.40;99.90;;;;;;5073600;28;20207;-69
2022/05/28 13:17:29;;;;;;;9.73;7.97;;;10.40;99.90;;;;;;5072781;28;20329;-69
2022/05/28 13:20:09;;;;;;;8.87;7.53;;;10.40;99.90;;;;;;5071587;28;20191;-69
2022/05/28 13:23:12;;;;;;;11.43;8.17;;;10.30;99.90;;;;;;5072929;28;20173;-69
2022/05/28 13:26:03;;;;;;;9.10;6.80;;;10.30;99.90;;;;;;5073371;28;20259;-69
2022/05/28 13:28:52;;;;;;;8.23;6.27;;;10.20;99.90;;;;;;5073210;28;20211;-68